sensor_id;sensor_type;location;lat;lon;timestamp;pressure;altitude;pressure_sealevel;temperature;humidity
62038;BME280;47991;42.974;12.082;2023-04-19T07:16:03;97672.14;;;19.34;50.94
62038;BME280;47991;42.974;12.082;2023-04-19T07:18:30;97673.31;;;19.07;50.52
62038;BME280;47991;42.974;12.082;2023-04-19T07:20:56;97671.88;;;18.97;51.03
62038;BME280;47991;42.974;12.082;2023-04-19T07:23:22;97672.09;;;18.76;51.18
62038;BME280;47991;42.974;12.082;2023-04-19T07:25:48;97670.86;;;18.46;52.26
62038;BME280;47991;42.974;12.082;2023-04-19T07:28:14;97670.25;;;17.94;51.10
62038;BME280;47991;42.974;12.082;2023-04-19T07:30:40;97672.23;;;17.23;52.41
62038;BME280;47991;42.974;12.082;2023-04-19T07:33:06;97669.99;;;16.79;53.33
62038;BME280;47991;42.974;12.082;2023-04-19T07:35:34;97672.92;;;16.14;55.31
62038;BME280;47991;42.974;12.082;2023-04-19T07:38:01;97671.56;;;15.74;56.41
62038;BME280;47991;42.974;12.082;2023-04-19T07:40:27;97672.16;;;15.62;56.43
62038;BME280;47991;42.974;12.082;2023-04-19T07:42:54;97664.78;;;15.78;55.79
62038;BME280;47991;42.974;12.082;2023-04-19T07:45:21;97669.66;;;16.12;56.00
62038;BME280;47991;42.974;12.082;2023-04-19T07:47:48;97666.03;;;16.37;55.45
62038;BME280;47991;42.974;12.082;2023-04-19T07:50:14;97666.84;;;16.51;55.38
62038;BME280;47991;42.974;12.082;2023-04-19T07:52:40;97662.77;;;16.67;55.44
62038;BME280;47991;42.974;12.082;2023-04-19T07:55:07;97662.02;;;16.75;55.01
62038;BME280;47991;42.974;12.082;2023-04-19T07:57:34;97660.48;;;16.67;54.89
62038;BME280;47991;42.974;12.082;2023-04-19T08:00:00;97663.02;;;16.66;54.40
62038;BME280;47991;42.974;12.082;2023-04-19T08:02:27;97655.48;;;16.73;54.58
62038;BME280;47991;42.974;12.082;2023-04-19T08:04:53;97659.15;;;16.68;55.05
62038;BME280;47991;42.974;12.082;2023-04-19T08:07:19;97664.00;;;16.64;55.83
62038;BME280;47991;42.974;12.082;2023-04-19T08:09:46;97663.61;;;16.65;55.73
62038;BME280;47991;42.974;12.082;2023-04-19T08:12:13;97662.98;;;16.20;56.98
62038;BME280;47991;42.974;12.082;2023-04-19T08:14:39;97658.81;;;16.15;55.47
62038;BME280;47991;42.974;12.082;2023-04-19T08:17:05;97652.85;;;16.30;55.24
62038;BME280;47991;42.974;12.082;2023-04-19T08:19:31;97656.41;;;16.36;55.22
62038;BME280;47991;42.974;12.082;2023-04-19T08:21:57;97653.59;;;16.36;54.53
62038;BME280;47991;42.974;12.082;2023-04-19T08:24:23;97652.97;;;16.47;55.42
62038;BME280;47991;42.974;12.082;2023-04-19T08:26:49;97653.08;;;16.62;56.16
62038;BME280;47991;42.974;12.082;2023-04-19T08:29:19;97651.52;;;16.84;55.12
62038;BME280;47991;42.974;12.082;2023-04-19T08:31:47;97646.48;;;17.01;54.77
62038;BME280;47991;42.974;12.082;2023-04-19T08:34:13;97650.90;;;17.02;53.19
62038;BME280;47991;42.974;12.082;2023-04-19T08:36:39;97647.35;;;17.08;53.78
62038;BME280;47991;42.974;12.082;2023-04-19T08:39:05;97646.44;;;17.21;53.43
62038;BME280;47991;42.974;12.082;2023-04-19T08:41:32;97647.23;;;17.32;53.74
62038;BME280;47991;42.974;12.082;2023-04-19T08:44:03;97646.41;;;17.49;53.90
62038;BME280;47991;42.974;12.082;2023-04-19T08:46:31;97643.02;;;17.58;52.83
62038;BME280;47991;42.974;12.082;2023-04-19T08:48:58;97641.20;;;17.56;52.51
62038;BME280;47991;42.974;12.082;2023-04-19T08:51:25;97639.39;;;17.71;52.68
62038;BME280;47991;42.974;12.082;2023-04-19T08:53:58;97638.95;;;17.75;51.46
62038;BME280;47991;42.974;12.082;2023-04-19T08:56:26;97636.36;;;17.83;51.04
62038;BME280;47991;42.974;12.082;2023-04-19T08:58:53;97638.70;;;17.80;51.54
62038;BME280;47991;42.974;12.082;2023-04-19T09:01:19;97636.11;;;17.88;51.06
62038;BME280;47991;42.974;12.082;2023-04-19T09:03:46;97637.25;;;17.87;50.59
62038;BME280;47991;42.974;12.082;2023-04-19T09:06:12;97632.29;;;17.61;50.45
62038;BME280;47991;42.974;12.082;2023-04-19T09:08:39;97635.52;;;17.43;50.92
62038;BME280;47991;42.974;12.082;2023-04-19T09:11:06;97633.45;;;17.69;51.84
62038;BME280;47991;42.974;12.082;2023-04-19T09:13:33;97632.52;;;17.82;50.88
62038;BME280;47991;42.974;12.082;2023-04-19T09:16:03;97628.18;;;17.64;50.37
62038;BME280;47991;42.974;12.082;2023-04-19T09:18:30;97629.31;;;17.85;51.56
62038;BME280;47991;42.974;12.082;2023-04-19T09:20:56;97632.30;;;18.21;51.02
62038;BME280;47991;42.974;12.082;2023-04-19T09:23:27;97627.11;;;18.59;50.56
62038;BME280;47991;42.974;12.082;2023-04-19T09:25:58;97625.60;;;18.68;49.89
62038;BME280;47991;42.974;12.082;2023-04-19T09:28:30;97623.50;;;18.85;48.42
62038;BME280;47991;42.974;12.082;2023-04-19T09:30:57;97624.23;;;18.82;47.12
62038;BME280;47991;42.974;12.082;2023-04-19T09:33:35;97619.69;;;18.46;46.96
62038;BME280;47991;42.974;12.082;2023-04-19T09:36:05;97618.32;;;18.13;49.88
62038;BME280;47991;42.974;12.082;2023-04-19T09:38:48;97615.48;;;18.33;47.59
62038;BME280;47991;42.974;12.082;2023-04-19T09:41:15;97611.23;;;18.38;47.05
62038;BME280;47991;42.974;12.082;2023-04-19T09:43:42;97610.01;;;18.49;47.48
62038;BME280;47991;42.974;12.082;2023-04-19T09:46:29;97608.64;;;18.85;47.34
62038;BME280;47991;42.974;12.082;2023-04-19T09:51:50;97599.14;;;19.05;44.76
62038;BME280;47991;42.974;12.082;2023-04-19T09:54:18;97596.45;;;19.35;45.52
62038;BME280;47991;42.974;12.082;2023-04-19T09:56:46;97593.77;;;19.48;44.41
62038;BME280;47991;42.974;12.082;2023-04-19T09:59:13;97588.91;;;19.56;43.33
62038;BME280;47991;42.974;12.082;2023-04-19T10:01:47;97587.84;;;19.75;43.77
62038;BME280;47991;42.974;12.082;2023-04-19T10:04:18;97585.79;;;19.89;44.07
62038;BME280;47991;42.974;12.082;2023-04-19T10:06:50;97583.38;;;20.09;44.34
62038;BME280;47991;42.974;12.082;2023-04-19T10:09:18;97582.14;;;19.80;43.74
62038;BME280;47991;42.974;12.082;2023-04-19T10:11:48;97583.04;;;19.95;42.88
62038;BME280;47991;42.974;12.082;2023-04-19T10:14:17;97579.75;;;20.17;43.12
62038;BME280;47991;42.974;12.082;2023-04-19T10:16:44;97575.23;;;20.45;43.37
62038;BME280;47991;42.974;12.082;2023-04-19T10:19:14;97576.80;;;20.81;43.26
62038;BME280;47991;42.974;12.082;2023-04-19T10:21:42;97567.70;;;20.98;41.54
62038;BME280;47991;42.974;12.082;2023-04-19T10:24:12;97565.52;;;21.08;41.71
62038;BME280;47991;42.974;12.082;2023-04-19T10:27:12;97559.16;;;21.16;40.74
62038;BME280;47991;42.974;12.082;2023-04-19T10:30:02;97559.30;;;21.33;41.51
62038;BME280;47991;42.974;12.082;2023-04-19T10:32:41;97555.30;;;21.07;38.88
62038;BME280;47991;42.974;12.082;2023-04-19T10:35:09;97554.05;;;21.27;40.31
62038;BME280;47991;42.974;12.082;2023-04-19T10:37:39;97552.08;;;21.48;39.65
62038;BME280;47991;42.974;12.082;2023-04-19T10:40:08;97549.37;;;21.67;40.45
62038;BME280;47991;42.974;12.082;2023-04-19T10:45:36;97545.53;;;21.84;38.97
62038;BME280;47991;42.974;12.082;2023-04-19T10:48:02;97540.89;;;21.81;38.02
62038;BME280;47991;42.974;12.082;2023-04-19T10:51:25;97536.59;;;21.79;37.54
62038;BME280;47991;42.974;12.082;2023-04-19T10:54:27;97537.21;;;21.73;37.72
62038;BME280;47991;42.974;12.082;2023-04-19T10:57:02;97534.67;;;21.94;35.79
62038;BME280;47991;42.974;12.082;2023-04-19T10:59:39;97532.69;;;21.97;34.85
62038;BME280;47991;42.974;12.082;2023-04-19T11:07:19;97522.62;;;21.76;37.29
62038;BME280;47991;42.974;12.082;2023-04-19T11:30:22;97491.65;;;19.65;36.15
62038;BME280;47991;42.974;12.082;2023-04-19T11:32:55;97488.65;;;20.08;36.92
62038;BME280;47991;42.974;12.082;2023-04-19T11:35:26;97481.63;;;20.71;34.67
62038;BME280;47991;42.974;12.082;2023-04-19T11:37:58;97476.92;;;20.74;33.92
62038;BME280;47991;42.974;12.082;2023-04-19T11:40:25;97472.02;;;20.77;34.70
62038;BME280;47991;42.974;12.082;2023-04-19T11:42:54;97473.48;;;20.14;34.02
62038;BME280;47991;42.974;12.082;2023-04-19T11:45:27;97473.60;;;19.35;35.49
62038;BME280;47991;42.974;12.082;2023-04-19T11:47:54;97473.84;;;19.03;35.28
62038;BME280;47991;42.974;12.082;2023-04-19T11:55:34;97462.81;;;19.26;35.66
62038;BME280;47991;42.974;12.082;2023-04-19T11:58:01;97459.43;;;19.85;35.74
62038;BME280;47991;42.974;12.082;2023-04-19T12:00:28;97451.52;;;20.33;35.37
62038;BME280;47991;42.974;12.082;2023-04-19T12:02:54;97448.18;;;20.66;34.94
62038;BME280;47991;42.974;12.082;2023-04-19T12:05:22;97445.98;;;20.89;34.34
62038;BME280;47991;42.974;12.082;2023-04-19T12:10:23;97442.42;;;21.36;35.32
62038;BME280;47991;42.974;12.082;2023-04-19T12:12:49;97437.94;;;21.63;36.44
62038;BME280;47991;42.974;12.082;2023-04-19T12:15:15;97433.03;;;22.00;37.44
62038;BME280;47991;42.974;12.082;2023-04-19T12:17:58;97433.48;;;22.06;37.29
62038;BME280;47991;42.974;12.082;2023-04-19T12:20:35;97436.56;;;21.70;37.71
62038;BME280;47991;42.974;12.082;2023-04-19T12:23:02;97436.36;;;21.39;37.53
62038;BME280;47991;42.974;12.082;2023-04-19T12:25:29;97432.05;;;21.18;38.52
62038;BME280;47991;42.974;12.082;2023-04-19T12:27:56;97427.30;;;21.07;38.70
62038;BME280;47991;42.974;12.082;2023-04-19T12:30:22;97425.92;;;21.17;38.03
62038;BME280;47991;42.974;12.082;2023-04-19T12:32:48;97423.48;;;21.04;38.29
62038;BME280;47991;42.974;12.082;2023-04-19T12:35:16;97422.28;;;20.81;38.80
62038;BME280;47991;42.974;12.082;2023-04-19T12:37:42;97422.04;;;20.72;39.68
62038;BME280;47991;42.974;12.082;2023-04-19T12:40:09;97420.05;;;20.63;40.30
62038;BME280;47991;42.974;12.082;2023-04-19T12:42:35;97419.10;;;20.51;40.10
62038;BME280;47991;42.974;12.082;2023-04-19T12:45:01;97417.89;;;20.46;40.79
62038;BME280;47991;42.974;12.082;2023-04-19T12:47:27;97414.71;;;20.38;41.42
62038;BME280;47991;42.974;12.082;2023-04-19T12:49:53;97411.82;;;20.35;40.40
62038;BME280;47991;42.974;12.082;2023-04-19T12:52:21;97409.08;;;20.42;39.99
62038;BME280;47991;42.974;12.082;2023-04-19T12:54:47;97407.45;;;20.46;40.17
62038;BME280;47991;42.974;12.082;2023-04-19T12:57:12;97406.14;;;20.64;39.85
62038;BME280;47991;42.974;12.082;2023-04-19T12:59:38;97405.55;;;21.08;39.57
62038;BME280;47991;42.974;12.082;2023-04-19T13:02:06;97400.59;;;21.61;39.06
62038;BME280;47991;42.974;12.082;2023-04-19T13:04:32;97387.73;;;22.04;38.59
62038;BME280;47991;42.974;12.082;2023-04-19T13:06:58;97379.23;;;22.45;37.66
62038;BME280;47991;42.974;12.082;2023-04-19T13:09:26;97376.23;;;22.68;36.03
62038;BME280;47991;42.974;12.082;2023-04-19T13:11:53;97371.17;;;22.29;35.16
62038;BME280;47991;42.974;12.082;2023-04-19T13:14:19;97374.14;;;21.76;35.10
62038;BME280;47991;42.974;12.082;2023-04-19T13:16:46;97371.06;;;21.79;36.29
62038;BME280;47991;42.974;12.082;2023-04-19T13:19:12;97366.22;;;21.74;35.86
62038;BME280;47991;42.974;12.082;2023-04-19T13:21:37;97353.98;;;22.12;36.14
62038;BME280;47991;42.974;12.082;2023-04-19T13:24:04;97353.63;;;22.47;35.65
62038;BME280;47991;42.974;12.082;2023-04-19T13:26:30;97346.02;;;22.54;34.05
62038;BME280;47991;42.974;12.082;2023-04-19T13:28:56;97341.36;;;22.69;34.89
62038;BME280;47991;42.974;12.082;2023-04-19T13:31:22;97341.48;;;22.87;33.65
62038;BME280;47991;42.974;12.082;2023-04-19T13:33:48;97336.20;;;22.49;32.71
62038;BME280;47991;42.974;12.082;2023-04-19T13:36:13;97332.27;;;22.74;33.61
62038;BME280;47991;42.974;12.082;2023-04-19T13:38:40;97330.16;;;23.14;32.52
62038;BME280;47991;42.974;12.082;2023-04-19T13:41:06;97328.43;;;23.07;32.99
62038;BME280;47991;42.974;12.082;2023-04-19T13:43:32;97326.23;;;22.75;32.25
62038;BME280;47991;42.974;12.082;2023-04-19T13:45:58;97327.59;;;22.27;33.25
62038;BME280;47991;42.974;12.082;2023-04-19T13:48:24;97323.20;;;22.18;33.98
62038;BME280;47991;42.974;12.082;2023-04-19T13:50:55;97322.41;;;22.69;34.75
62038;BME280;47991;42.974;12.082;2023-04-19T13:53:21;97320.95;;;22.87;33.39
62038;BME280;47991;42.974;12.082;2023-04-19T13:55:51;97319.20;;;22.67;32.82
62038;BME280;47991;42.974;12.082;2023-04-19T13:58:20;97320.19;;;22.25;33.28
62038;BME280;47991;42.974;12.082;2023-04-19T14:00:46;97322.14;;;21.81;33.89
62038;BME280;47991;42.974;12.082;2023-04-19T14:03:13;97323.83;;;21.53;34.46
62038;BME280;47991;42.974;12.082;2023-04-19T14:05:39;97322.51;;;21.24;35.11
62038;BME280;47991;42.974;12.082;2023-04-19T14:08:05;97319.01;;;21.11;35.55
62038;BME280;47991;42.974;12.082;2023-04-19T14:10:31;97318.22;;;20.96;36.32
62038;BME280;47991;42.974;12.082;2023-04-19T14:12:57;97310.27;;;20.94;36.66
62038;BME280;47991;42.974;12.082;2023-04-19T14:15:23;97312.70;;;21.04;38.29
62038;BME280;47991;42.974;12.082;2023-04-19T14:17:50;97302.22;;;21.10;37.25
62038;BME280;47991;42.974;12.082;2023-04-19T14:20:16;97299.99;;;21.08;36.86
62038;BME280;47991;42.974;12.082;2023-04-19T14:22:43;97298.09;;;20.86;38.32
62038;BME280;47991;42.974;12.082;2023-04-19T14:25:10;97297.22;;;20.56;37.90
62038;BME280;47991;42.974;12.082;2023-04-19T14:27:37;97293.32;;;20.57;37.70
62038;BME280;47991;42.974;12.082;2023-04-19T14:30:05;97292.15;;;20.56;37.25
62038;BME280;47991;42.974;12.082;2023-04-19T14:32:32;97288.00;;;20.30;37.44
62038;BME280;47991;42.974;12.082;2023-04-19T14:34:59;97288.16;;;20.26;37.95
62038;BME280;47991;42.974;12.082;2023-04-19T14:37:25;97285.17;;;20.27;37.94
62038;BME280;47991;42.974;12.082;2023-04-19T14:39:51;97285.33;;;20.27;37.96
62038;BME280;47991;42.974;12.082;2023-04-19T14:42:18;97283.07;;;20.22;38.83
62038;BME280;47991;42.974;12.082;2023-04-19T14:44:45;97282.73;;;20.00;39.01
62038;BME280;47991;42.974;12.082;2023-04-19T14:47:12;97276.96;;;19.95;38.10
62038;BME280;47991;42.974;12.082;2023-04-19T14:49:39;97277.69;;;19.95;37.94
62038;BME280;47991;42.974;12.082;2023-04-19T14:52:07;97278.08;;;19.78;39.00
62038;BME280;47991;42.974;12.082;2023-04-19T14:54:34;97279.21;;;19.77;38.43
62038;BME280;47991;42.974;12.082;2023-04-19T14:56:59;97281.30;;;19.75;38.11
62038;BME280;47991;42.974;12.082;2023-04-19T14:59:26;97281.94;;;19.71;38.10
62038;BME280;47991;42.974;12.082;2023-04-19T15:01:54;97278.35;;;19.66;37.74
62038;BME280;47991;42.974;12.082;2023-04-19T15:04:24;97281.81;;;19.68;39.33
62038;BME280;47991;42.974;12.082;2023-04-19T15:06:53;97280.16;;;19.61;40.61
62038;BME280;47991;42.974;12.082;2023-04-19T15:09:20;97281.08;;;19.36;42.20
62038;BME280;47991;42.974;12.082;2023-04-19T15:11:59;97279.41;;;19.24;43.29
62038;BME280;47991;42.974;12.082;2023-04-19T15:14:28;97278.77;;;19.08;44.09
62038;BME280;47991;42.974;12.082;2023-04-19T15:16:54;97275.27;;;18.86;44.99
62038;BME280;47991;42.974;12.082;2023-04-19T15:19:20;97278.44;;;18.66;45.80
62038;BME280;47991;42.974;12.082;2023-04-19T15:21:46;97283.23;;;18.21;48.62
62038;BME280;47991;42.974;12.082;2023-04-19T15:24:12;97287.03;;;18.04;49.43
62038;BME280;47991;42.974;12.082;2023-04-19T15:26:40;97290.49;;;17.61;51.55
62038;BME280;47991;42.974;12.082;2023-04-19T15:29:06;97300.45;;;17.43;52.08
62038;BME280;47991;42.974;12.082;2023-04-19T15:31:32;97300.86;;;17.25;52.18
62038;BME280;47991;42.974;12.082;2023-04-19T15:34:02;97303.20;;;17.10;53.15
62038;BME280;47991;42.974;12.082;2023-04-19T15:36:29;97307.48;;;17.04;54.05
62038;BME280;47991;42.974;12.082;2023-04-19T15:38:56;97308.83;;;16.82;56.10
62038;BME280;47991;42.974;12.082;2023-04-19T15:41:28;97313.39;;;16.74;55.38
62038;BME280;47991;42.974;12.082;2023-04-19T15:43:56;97310.96;;;16.56;56.79
62038;BME280;47991;42.974;12.082;2023-04-19T15:46:22;97312.99;;;16.36;59.88
62038;BME280;47991;42.974;12.082;2023-04-19T15:48:51;97315.36;;;15.66;66.09
62038;BME280;47991;42.974;12.082;2023-04-19T15:51:36;97321.36;;;15.09;68.93
62038;BME280;47991;42.974;12.082;2023-04-19T15:54:08;97319.94;;;14.53;71.64
62038;BME280;47991;42.974;12.082;2023-04-19T16:08:43;97329.96;;;14.94;69.48
62038;BME280;47991;42.974;12.082;2023-04-19T16:11:10;97334.39;;;14.78;69.19
62038;BME280;47991;42.974;12.082;2023-04-19T16:13:36;97339.23;;;14.64;70.32
62038;BME280;47991;42.974;12.082;2023-04-19T16:16:06;97342.31;;;14.55;70.87
62038;BME280;47991;42.974;12.082;2023-04-19T16:18:32;97346.73;;;14.41;71.04
62038;BME280;47991;42.974;12.082;2023-04-19T16:20:59;97344.02;;;14.49;69.05
62038;BME280;47991;42.974;12.082;2023-04-19T16:23:26;97350.56;;;14.57;67.53
62038;BME280;47991;42.974;12.082;2023-04-19T16:25:53;97359.63;;;14.64;67.08
62038;BME280;47991;42.974;12.082;2023-04-19T16:28:19;97371.34;;;14.68;65.79
62038;BME280;47991;42.974;12.082;2023-04-19T16:30:46;97376.52;;;14.75;65.37
62038;BME280;47991;42.974;12.082;2023-04-19T16:33:13;97380.27;;;14.64;68.91
62038;BME280;47991;42.974;12.082;2023-04-19T16:35:41;97378.52;;;14.45;68.63
62038;BME280;47991;42.974;12.082;2023-04-19T16:38:07;97379.18;;;14.46;68.08
62038;BME280;47991;42.974;12.082;2023-04-19T16:40:34;97382.14;;;14.44;69.29
62038;BME280;47991;42.974;12.082;2023-04-19T16:43:00;97379.23;;;14.42;67.15
62038;BME280;47991;42.974;12.082;2023-04-19T16:45:27;97382.66;;;14.48;65.90
62038;BME280;47991;42.974;12.082;2023-04-19T16:47:54;97387.91;;;14.50;66.61
62038;BME280;47991;42.974;12.082;2023-04-19T16:50:20;97396.86;;;14.49;66.40
62038;BME280;47991;42.974;12.082;2023-04-19T16:52:47;97399.64;;;14.39;67.18
62038;BME280;47991;42.974;12.082;2023-04-19T16:55:14;97403.39;;;14.32;69.85
62038;BME280;47991;42.974;12.082;2023-04-19T16:57:40;97402.00;;;14.27;66.89
62038;BME280;47991;42.974;12.082;2023-04-19T17:00:07;97407.73;;;14.23;67.55
62038;BME280;47991;42.974;12.082;2023-04-19T17:02:35;97407.67;;;14.13;68.83
62038;BME280;47991;42.974;12.082;2023-04-19T17:05:02;97410.06;;;14.11;67.69
62038;BME280;47991;42.974;12.082;2023-04-19T17:07:29;97411.45;;;14.12;69.02
62038;BME280;47991;42.974;12.082;2023-04-19T17:09:55;97410.48;;;14.13;68.13
62038;BME280;47991;42.974;12.082;2023-04-19T17:12:24;97408.47;;;14.04;70.52
62038;BME280;47991;42.974;12.082;2023-04-19T17:14:54;97412.92;;;13.66;74.40
62038;BME280;47991;42.974;12.082;2023-04-19T17:17:20;97415.24;;;13.34;73.54
62038;BME280;47991;42.974;12.082;2023-04-19T17:19:47;97426.02;;;13.27;74.54
62038;BME280;47991;42.974;12.082;2023-04-19T17:22:14;97430.87;;;13.21;72.36
62038;BME280;47991;42.974;12.082;2023-04-19T17:24:41;97443.70;;;13.33;71.98
62038;BME280;47991;42.974;12.082;2023-04-19T17:27:08;97443.61;;;13.31;71.75
62038;BME280;47991;42.974;12.082;2023-04-19T17:29:35;97447.43;;;13.37;70.87
62038;BME280;47991;42.974;12.082;2023-04-19T17:32:01;97449.44;;;13.44;70.36
62038;BME280;47991;42.974;12.082;2023-04-19T17:34:28;97453.34;;;13.52;70.11
62038;BME280;47991;42.974;12.082;2023-04-19T17:36:55;97457.02;;;13.57;70.42
62038;BME280;47991;42.974;12.082;2023-04-19T17:39:22;97458.19;;;13.62;70.06
62038;BME280;47991;42.974;12.082;2023-04-19T17:41:52;97459.08;;;13.62;70.22
62038;BME280;47991;42.974;12.082;2023-04-19T17:44:20;97463.38;;;13.50;71.70
62038;BME280;47991;42.974;12.082;2023-04-19T17:46:46;97465.63;;;13.43;71.88
62038;BME280;47991;42.974;12.082;2023-04-19T17:49:13;97463.33;;;13.26;73.26
62038;BME280;47991;42.974;12.082;2023-04-19T17:51:42;97463.98;;;13.19;73.47
62038;BME280;47991;42.974;12.082;2023-04-19T17:54:08;97466.19;;;13.14;72.63
62038;BME280;47991;42.974;12.082;2023-04-19T17:56:35;97466.05;;;13.21;70.99
62038;BME280;47991;42.974;12.082;2023-04-19T17:59:01;97472.05;;;13.29;71.06
62038;BME280;47991;42.974;12.082;2023-04-19T18:01:29;97471.55;;;13.34;70.66
62038;BME280;47991;42.974;12.082;2023-04-19T18:03:57;97469.92;;;13.38;70.22
62038;BME280;47991;42.974;12.082;2023-04-19T18:06:24;97473.46;;;13.39;70.61
62038;BME280;47991;42.974;12.082;2023-04-19T18:08:50;97472.67;;;13.27;72.95
62038;BME280;47991;42.974;12.082;2023-04-19T18:11:17;97474.77;;;13.25;72.31
62038;BME280;47991;42.974;12.082;2023-04-19T18:13:44;97475.95;;;13.05;74.74
62038;BME280;47991;42.974;12.082;2023-04-19T18:16:11;97477.07;;;12.79;75.95
62038;BME280;47991;42.974;12.082;2023-04-19T18:18:39;97479.89;;;12.44;77.26
62038;BME280;47991;42.974;12.082;2023-04-19T18:21:06;97480.23;;;12.45;73.99
62038;BME280;47991;42.974;12.082;2023-04-19T18:23:33;97482.47;;;12.60;73.49
62038;BME280;47991;42.974;12.082;2023-04-19T18:26:01;97484.12;;;12.71;73.64
62038;BME280;47991;42.974;12.082;2023-04-19T18:28:29;97482.35;;;12.71;72.91
62038;BME280;47991;42.974;12.082;2023-04-19T18:30:56;97481.42;;;12.77;72.72
62038;BME280;47991;42.974;12.082;2023-04-19T18:33:22;97486.50;;;12.82;73.65
62038;BME280;47991;42.974;12.082;2023-04-19T18:35:49;97490.94;;;12.78;75.51
62038;BME280;47991;42.974;12.082;2023-04-19T18:38:15;97491.48;;;12.51;80.37
62038;BME280;47991;42.974;12.082;2023-04-19T18:40:42;97495.71;;;12.48;76.39
62038;BME280;47991;42.974;12.082;2023-04-19T18:43:09;97489.66;;;12.58;75.27
62038;BME280;47991;42.974;12.082;2023-04-19T18:45:35;97495.90;;;12.65;77.26
62038;BME280;47991;42.974;12.082;2023-04-19T18:48:02;97502.44;;;12.53;78.54
62038;BME280;47991;42.974;12.082;2023-04-19T18:50:29;97502.39;;;12.45;76.46
62038;BME280;47991;42.974;12.082;2023-04-19T18:52:56;97500.67;;;12.57;75.87
62038;BME280;47991;42.974;12.082;2023-04-19T18:55:23;97499.88;;;12.55;77.41
62038;BME280;47991;42.974;12.082;2023-04-19T18:57:51;97502.41;;;12.40;80.40
62038;BME280;47991;42.974;12.082;2023-04-19T19:00:18;97496.13;;;12.28;77.71
62038;BME280;47991;42.974;12.082;2023-04-19T19:02:47;97497.39;;;12.32;77.18
62038;BME280;47991;42.974;12.082;2023-04-19T19:05:21;97499.23;;;12.40;76.48
62038;BME280;47991;42.974;12.082;2023-04-19T20:59:19;97494.15;;;11.49;81.01
62038;BME280;47991;42.974;12.082;2023-04-19T21:01:47;97495.71;;;11.35;82.14
62038;BME280;47991;42.974;12.082;2023-04-19T21:04:14;97497.58;;;11.32;80.01
62038;BME280;47991;42.974;12.082;2023-04-19T21:06:41;97498.83;;;11.37;81.02
62038;BME280;47991;42.974;12.082;2023-04-19T21:09:08;97501.08;;;11.33;81.54
62038;BME280;47991;42.974;12.082;2023-04-19T21:11:35;97500.64;;;11.36;80.60
62038;BME280;47991;42.974;12.082;2023-04-19T21:14:02;97499.25;;;11.45;79.15
62038;BME280;47991;42.974;12.082;2023-04-19T21:16:29;97501.08;;;11.53;78.69
62038;BME280;47991;42.974;12.082;2023-04-19T21:18:56;97502.83;;;11.58;77.97
62038;BME280;47991;42.974;12.082;2023-04-19T21:21:23;97502.19;;;11.62;78.06
62038;BME280;47991;42.974;12.082;2023-04-19T21:23:50;97506.47;;;11.65;78.52
62038;BME280;47991;42.974;12.082;2023-04-19T21:26:17;97507.77;;;11.59;79.87
62038;BME280;47991;42.974;12.082;2023-04-19T21:28:44;97511.48;;;11.54;78.67
62038;BME280;47991;42.974;12.082;2023-04-19T21:31:10;97507.06;;;11.59;78.31
62038;BME280;47991;42.974;12.082;2023-04-19T21:33:37;97508.23;;;11.60;78.18
62038;BME280;47991;42.974;12.082;2023-04-19T21:36:04;97516.91;;;11.51;81.56
62038;BME280;47991;42.974;12.082;2023-04-19T21:38:33;97521.52;;;11.41;80.82
62038;BME280;47991;42.974;12.082;2023-04-19T21:41:00;97521.23;;;11.39;80.37
62038;BME280;47991;42.974;12.082;2023-04-19T21:43:26;97523.87;;;11.40;79.96
62038;BME280;47991;42.974;12.082;2023-04-19T21:45:53;97524.96;;;11.44;80.42
62038;BME280;47991;42.974;12.082;2023-04-19T21:48:20;97519.84;;;11.38;80.04
62038;BME280;47991;42.974;12.082;2023-04-19T21:50:47;97517.84;;;11.35;80.66
62038;BME280;47991;42.974;12.082;2023-04-19T21:53:13;97520.89;;;11.33;80.29
62038;BME280;47991;42.974;12.082;2023-04-19T21:55:40;97522.37;;;11.37;80.33
62038;BME280;47991;42.974;12.082;2023-04-19T21:58:07;97518.45;;;11.37;79.70
62038;BME280;47991;42.974;12.082;2023-04-19T22:00:33;97525.19;;;11.37;80.86
62038;BME280;47991;42.974;12.082;2023-04-19T22:03:00;97521.52;;;11.31;82.13
62038;BME280;47991;42.974;12.082;2023-04-19T22:05:27;97521.96;;;11.18;83.35
62038;BME280;47991;42.974;12.082;2023-04-19T22:07:54;97522.17;;;11.12;84.56
62038;BME280;47991;42.974;12.082;2023-04-19T22:10:23;97518.52;;;10.89;85.81
62038;BME280;47991;42.974;12.082;2023-04-19T22:12:50;97518.59;;;10.92;83.31
62038;BME280;47991;42.974;12.082;2023-04-19T22:15:19;97518.62;;;11.02;82.39
62038;BME280;47991;42.974;12.082;2023-04-19T22:17:46;97519.84;;;11.08;81.59
62038;BME280;47991;42.974;12.082;2023-04-19T22:20:13;97520.27;;;11.11;81.36
62038;BME280;47991;42.974;12.082;2023-04-19T22:22:40;97525.98;;;11.04;83.18
62038;BME280;47991;42.974;12.082;2023-04-19T22:25:08;97523.05;;;10.86;83.45
62038;BME280;47991;42.974;12.082;2023-04-19T22:27:35;97520.73;;;10.87;82.37
62038;BME280;47991;42.974;12.082;2023-04-19T22:30:02;97525.70;;;10.86;83.71
62038;BME280;47991;42.974;12.082;2023-04-19T22:32:29;97523.00;;;10.82;83.05
62038;BME280;47991;42.974;12.082;2023-04-19T22:34:56;97523.23;;;10.86;82.63
62038;BME280;47991;42.974;12.082;2023-04-19T22:37:23;97525.96;;;10.83;82.65
62038;BME280;47991;42.974;12.082;2023-04-19T22:39:49;97522.30;;;10.87;82.18
62038;BME280;47991;42.974;12.082;2023-04-19T22:42:16;97522.60;;;10.89;81.82
62038;BME280;47991;42.974;12.082;2023-04-19T22:44:43;97521.92;;;10.94;81.37
62038;BME280;47991;42.974;12.082;2023-04-19T22:47:10;97525.39;;;11.00;81.23
62038;BME280;47991;42.974;12.082;2023-04-19T22:49:37;97523.70;;;11.04;80.93
62038;BME280;47991;42.974;12.082;2023-04-19T22:52:07;97521.83;;;11.01;81.06